sensor_id;sensor_type;location;lat;lon;timestamp;temperature;humidity
2465;DHT22;1244;54.326;10.074;2023-12-20T00:00:21;5.00;99.90
2465;DHT22;1244;54.326;10.074;2023-12-20T00:02:47;5.10;99.90
2465;DHT22;1244;54.326;10.074;2023-12-20T00:05:14;5.10;99.90
2465;DHT22;1244;54.326;10.074;2023-12-20T00:07:40;5.10;99.90
2465;DHT22;1244;54.326;10.074;2023-12-20T00:10:05;5.00;99.90
2465;DHT22;1244;54.326;10.074;2023-12-20T00:12:31;5.00;99.90
2465;DHT22;1244;54.326;10.074;2023-12-20T00:14:56;5.00;99.90
2465;DHT22;1244;54.326;10.074;2023-12-20T00:17:22;5.00;99.90
2465;DHT22;1244;54.326;10.074;2023-12-20T00:19:47;5.00;99.90
2465;DHT22;1244;54.326;10.074;2023-12-20T00:22:13;5.00;99.90
2465;DHT22;1244;54.326;10.074;2023-12-20T00:24:38;5.10;99.90
2465;DHT22;1244;54.326;10.074;2023-12-20T00:27:04;5.10;99.90
2465;DHT22;1244;54.326;10.074;2023-12-20T00:29:30;5.20;99.90
2465;DHT22;1244;54.326;10.074;2023-12-20T00:31:55;5.20;99.90
2465;DHT22;1244;54.326;10.074;2023-12-20T00:34:21;5.20;99.90
2465;DHT22;1244;54.326;10.074;2023-12-20T00:36:46;5.30;99.90
2465;DHT22;1244;54.326;10.074;2023-12-20T00:39:12;5.30;99.90
2465;DHT22;1244;54.326;10.074;2023-12-20T00:41:38;5.30;99.90
2465;DHT22;1244;54.326;10.074;2023-12-20T00:44:04;5.30;99.90
2465;DHT22;1244;54.326;10.074;2023-12-20T00:46:30;5.30;99.90
2465;DHT22;1244;54.326;10.074;2023-12-20T00:48:55;5.30;99.90
2465;DHT22;1244;54.326;10.074;2023-12-20T00:51:21;5.30;99.90
2465;DHT22;1244;54.326;10.074;2023-12-20T00:53:49;5.30;99.90
2465;DHT22;1244;54.326;10.074;2023-12-20T00:56:15;5.30;99.90
2465;DHT22;1244;54.326;10.074;2023-12-20T00:58:41;5.30;99.90
2465;DHT22;1244;54.326;10.074;2023-12-20T01:01:06;5.20;99.90
2465;DHT22;1244;54.326;10.074;2023-12-20T01:03:32;5.20;99.90
2465;DHT22;1244;54.326;10.074;2023-12-20T01:05:57;5.20;99.90
2465;DHT22;1244;54.326;10.074;2023-12-20T01:08:23;5.20;99.90
2465;DHT22;1244;54.326;10.074;2023-12-20T01:10:48;5.20;99.90
2465;DHT22;1244;54.326;10.074;2023-12-20T01:13:14;5.20;99.90
2465;DHT22;1244;54.326;10.074;2023-12-20T01:15:39;5.20;99.90
2465;DHT22;1244;54.326;10.074;2023-12-20T01:18:05;5.20;99.90
2465;DHT22;1244;54.326;10.074;2023-12-20T01:20:30;5.20;99.90
2465;DHT22;1244;54.326;10.074;2023-12-20T01:22:56;5.20;99.90
2465;DHT22;1244;54.326;10.074;2023-12-20T01:25:22;5.20;99.90
2465;DHT22;1244;54.326;10.074;2023-12-20T01:27:47;5.20;99.90
2465;DHT22;1244;54.326;10.074;2023-12-20T01:30:13;5.20;99.90
2465;DHT22;1244;54.326;10.074;2023-12-20T01:32:39;5.20;99.90
2465;DHT22;1244;54.326;10.074;2023-12-20T01:35:05;5.20;99.90
2465;DHT22;1244;54.326;10.074;2023-12-20T01:37:30;5.20;99.90
2465;DHT22;1244;54.326;10.074;2023-12-20T01:39:56;5.30;99.90
2465;DHT22;1244;54.326;10.074;2023-12-20T01:42:21;5.30;99.90
2465;DHT22;1244;54.326;10.074;2023-12-20T01:44:47;5.30;99.90
2465;DHT22;1244;54.326;10.074;2023-12-20T01:47:13;5.30;99.90
2465;DHT22;1244;54.326;10.074;2023-12-20T01:49:39;5.30;99.90
2465;DHT22;1244;54.326;10.074;2023-12-20T01:52:05;5.30;99.90
2465;DHT22;1244;54.326;10.074;2023-12-20T01:54:31;5.30;99.90
2465;DHT22;1244;54.326;10.074;2023-12-20T01:56:57;5.30;99.90
2465;DHT22;1244;54.326;10.074;2023-12-20T01:59:22;5.30;99.90
2465;DHT22;1244;54.326;10.074;2023-12-20T02:01:48;5.30;99.90
2465;DHT22;1244;54.326;10.074;2023-12-20T02:04:14;5.30;99.90
2465;DHT22;1244;54.326;10.074;2023-12-20T02:06:40;5.30;99.90
2465;DHT22;1244;54.326;10.074;2023-12-20T02:09:07;5.30;99.90
2465;DHT22;1244;54.326;10.074;2023-12-20T02:11:33;5.30;99.90
2465;DHT22;1244;54.326;10.074;2023-12-20T02:14:00;5.30;99.90
2465;DHT22;1244;54.326;10.074;2023-12-20T02:16:26;5.30;99.90
2465;DHT22;1244;54.326;10.074;2023-12-20T02:18:52;5.30;99.90
2465;DHT22;1244;54.326;10.074;2023-12-20T02:21:17;5.30;99.90
2465;DHT22;1244;54.326;10.074;2023-12-20T02:23:43;5.40;99.90
2465;DHT22;1244;54.326;10.074;2023-12-20T02:26:08;5.40;99.90
2465;DHT22;1244;54.326;10.074;2023-12-20T02:28:34;5.50;99.90
2465;DHT22;1244;54.326;10.074;2023-12-20T02:31:00;5.50;99.90
2465;DHT22;1244;54.326;10.074;2023-12-20T02:33:25;5.50;99.90
2465;DHT22;1244;54.326;10.074;2023-12-20T02:35:51;5.50;99.90
2465;DHT22;1244;54.326;10.074;2023-12-20T02:38:18;5.50;99.90
2465;DHT22;1244;54.326;10.074;2023-12-20T02:40:43;5.50;99.90
2465;DHT22;1244;54.326;10.074;2023-12-20T02:43:09;5.50;99.90
2465;DHT22;1244;54.326;10.074;2023-12-20T02:45:34;5.50;99.90
2465;DHT22;1244;54.326;10.074;2023-12-20T02:48:00;5.50;99.90
2465;DHT22;1244;54.326;10.074;2023-12-20T02:50:25;5.50;99.90
2465;DHT22;1244;54.326;10.074;2023-12-20T02:52:51;5.40;99.90
2465;DHT22;1244;54.326;10.074;2023-12-20T02:55:16;5.40;99.90
2465;DHT22;1244;54.326;10.074;2023-12-20T02:57:42;5.40;99.90
2465;DHT22;1244;54.326;10.074;2023-12-20T03:00:08;5.40;99.90
2465;DHT22;1244;54.326;10.074;2023-12-20T03:02:35;5.40;99.90
2465;DHT22;1244;54.326;10.074;2023-12-20T03:05:01;5.30;99.90
2465;DHT22;1244;54.326;10.074;2023-12-20T03:07:26;5.30;99.90
2465;DHT22;1244;54.326;10.074;2023-12-20T03:09:52;5.30;99.90
2465;DHT22;1244;54.326;10.074;2023-12-20T03:12:17;5.30;99.90
2465;DHT22;1244;54.326;10.074;2023-12-20T03:14:44;5.30;99.90
2465;DHT22;1244;54.326;10.074;2023-12-20T03:17:09;5.30;99.90
2465;DHT22;1244;54.326;10.074;2023-12-20T03:19:35;5.40;99.90
2465;DHT22;1244;54.326;10.074;2023-12-20T03:22:00;5.40;99.90
2465;DHT22;1244;54.326;10.074;2023-12-20T03:24:26;5.40;99.90
2465;DHT22;1244;54.326;10.074;2023-12-20T03:26:52;5.40;99.90
2465;DHT22;1244;54.326;10.074;2023-12-20T03:29:17;5.50;99.90
2465;DHT22;1244;54.326;10.074;2023-12-20T03:31:43;5.50;99.90
2465;DHT22;1244;54.326;10.074;2023-12-20T03:34:08;5.50;99.90
2465;DHT22;1244;54.326;10.074;2023-12-20T03:36:34;5.50;99.90
2465;DHT22;1244;54.326;10.074;2023-12-20T03:38:59;5.50;99.90
2465;DHT22;1244;54.326;10.074;2023-12-20T03:41:25;5.50;99.90
2465;DHT22;1244;54.326;10.074;2023-12-20T03:43:51;5.50;99.90
2465;DHT22;1244;54.326;10.074;2023-12-20T03:46:17;5.60;99.90
2465;DHT22;1244;54.326;10.074;2023-12-20T03:48:43;5.60;99.90
2465;DHT22;1244;54.326;10.074;2023-12-20T03:51:08;5.60;99.90
2465;DHT22;1244;54.326;10.074;2023-12-20T03:53:33;5.60;99.90
2465;DHT22;1244;54.326;10.074;2023-12-20T03:55:59;5.60;99.90
2465;DHT22;1244;54.326;10.074;2023-12-20T03:58:25;5.60;99.90
2465;DHT22;1244;54.326;10.074;2023-12-20T04:00:50;5.70;99.90
2465;DHT22;1244;54.326;10.074;2023-12-20T04:03:16;5.70;99.90
2465;DHT22;1244;54.326;10.074;2023-12-20T04:05:41;5.60;99.90
2465;DHT22;1244;54.326;10.074;2023-12-20T04:08:07;5.70;99.90
2465;DHT22;1244;54.326;10.074;2023-12-20T04:10:33;5.60;99.90
2465;DHT22;1244;54.326;10.074;2023-12-20T04:12:58;5.60;99.90
2465;DHT22;1244;54.326;10.074;2023-12-20T04:15:24;5.60;99.90
2465;DHT22;1244;54.326;10.074;2023-12-20T04:17:49;5.70;99.90
2465;DHT22;1244;54.326;10.074;2023-12-20T04:20:15;5.70;99.90
2465;DHT22;1244;54.326;10.074;2023-12-20T04:22:40;5.70;99.90
2465;DHT22;1244;54.326;10.074;2023-12-20T04:25:06;5.70;99.90
2465;DHT22;1244;54.326;10.074;2023-12-20T04:27:32;5.70;99.90
2465;DHT22;1244;54.326;10.074;2023-12-20T04:29:57;5.70;99.90
2465;DHT22;1244;54.326;10.074;2023-12-20T04:32:23;5.70;99.90
2465;DHT22;1244;54.326;10.074;2023-12-20T04:34:48;5.70;99.90
2465;DHT22;1244;54.326;10.074;2023-12-20T04:37:14;5.70;99.90
2465;DHT22;1244;54.326;10.074;2023-12-20T04:39:39;5.60;99.90
2465;DHT22;1244;54.326;10.074;2023-12-20T04:42:06;5.60;99.90
2465;DHT22;1244;54.326;10.074;2023-12-20T04:44:32;5.60;99.90
2465;DHT22;1244;54.326;10.074;2023-12-20T04:46:57;5.60;99.90
2465;DHT22;1244;54.326;10.074;2023-12-20T04:49:23;5.60;99.90
2465;DHT22;1244;54.326;10.074;2023-12-20T04:51:48;5.60;99.90
2465;DHT22;1244;54.326;10.074;2023-12-20T04:54:14;5.50;99.90
2465;DHT22;1244;54.326;10.074;2023-12-20T04:56:40;5.50;99.90
2465;DHT22;1244;54.326;10.074;2023-12-20T04:59:05;5.60;99.90
2465;DHT22;1244;54.326;10.074;2023-12-20T05:01:31;5.60;99.90
2465;DHT22;1244;54.326;10.074;2023-12-20T05:03:56;5.60;99.90
2465;DHT22;1244;54.326;10.074;2023-12-20T05:06:22;5.70;99.90
2465;DHT22;1244;54.326;10.074;2023-12-20T05:08:47;5.70;99.90
2465;DHT22;1244;54.326;10.074;2023-12-20T05:11:13;5.70;99.90
2465;DHT22;1244;54.326;10.074;2023-12-20T05:13:40;5.70;99.90
2465;DHT22;1244;54.326;10.074;2023-12-20T05:16:06;5.80;99.90
2465;DHT22;1244;54.326;10.074;2023-12-20T05:18:31;5.70;99.90
2465;DHT22;1244;54.326;10.074;2023-12-20T05:20:57;5.70;99.90
2465;DHT22;1244;54.326;10.074;2023-12-20T05:23:23;5.70;99.90
2465;DHT22;1244;54.326;10.074;2023-12-20T05:25:48;5.70;99.90
2465;DHT22;1244;54.326;10.074;2023-12-20T05:28:14;5.70;99.90
2465;DHT22;1244;54.326;10.074;2023-12-20T05:30:40;5.70;99.90
2465;DHT22;1244;54.326;10.074;2023-12-20T05:33:05;5.80;99.90
2465;DHT22;1244;54.326;10.074;2023-12-20T05:35:31;5.80;99.90
2465;DHT22;1244;54.326;10.074;2023-12-20T05:37:56;5.80;99.90
2465;DHT22;1244;54.326;10.074;2023-12-20T05:40:22;5.70;99.90
2465;DHT22;1244;54.326;10.074;2023-12-20T05:42:47;5.70;99.90
2465;DHT22;1244;54.326;10.074;2023-12-20T05:45:14;5.70;99.90
2465;DHT22;1244;54.326;10.074;2023-12-20T05:47:40;5.70;99.90
2465;DHT22;1244;54.326;10.074;2023-12-20T05:50:06;5.60;99.90
2465;DHT22;1244;54.326;10.074;2023-12-20T05:52:31;5.70;99.90
2465;DHT22;1244;54.326;10.074;2023-12-20T05:54:57;5.70;99.90
2465;DHT22;1244;54.326;10.074;2023-12-20T05:57:26;5.70;99.90
2465;DHT22;1244;54.326;10.074;2023-12-20T05:59:52;5.70;99.90
2465;DHT22;1244;54.326;10.074;2023-12-20T06:02:17;5.80;99.90
2465;DHT22;1244;54.326;10.074;2023-12-20T06:04:43;5.80;99.90
2465;DHT22;1244;54.326;10.074;2023-12-20T06:07:12;5.80;99.90
2465;DHT22;1244;54.326;10.074;2023-12-20T06:09:38;5.90;99.90
2465;DHT22;1244;54.326;10.074;2023-12-20T06:12:04;5.90;99.90
2465;DHT22;1244;54.326;10.074;2023-12-20T06:14:30;5.80;99.90
2465;DHT22;1244;54.326;10.074;2023-12-20T06:16:56;5.80;99.90
2465;DHT22;1244;54.326;10.074;2023-12-20T06:19:22;5.80;99.90
2465;DHT22;1244;54.326;10.074;2023-12-20T06:21:48;5.80;99.90
2465;DHT22;1244;54.326;10.074;2023-12-20T06:24:13;5.80;99.90
2465;DHT22;1244;54.326;10.074;2023-12-20T06:26:39;5.90;99.90
2465;DHT22;1244;54.326;10.074;2023-12-20T06:29:04;5.90;99.90
2465;DHT22;1244;54.326;10.074;2023-12-20T06:31:30;5.90;99.90
2465;DHT22;1244;54.326;10.074;2023-12-20T06:33:58;5.80;99.90
2465;DHT22;1244;54.326;10.074;2023-12-20T06:36:25;5.80;99.90
2465;DHT22;1244;54.326;10.074;2023-12-20T06:38:51;5.80;99.90
2465;DHT22;1244;54.326;10.074;2023-12-20T06:41:16;5.80;99.90
2465;DHT22;1244;54.326;10.074;2023-12-20T06:43:42;5.70;99.90
2465;DHT22;1244;54.326;10.074;2023-12-20T06:46:08;5.70;99.90
2465;DHT22;1244;54.326;10.074;2023-12-20T06:48:34;5.70;99.90
2465;DHT22;1244;54.326;10.074;2023-12-20T06:51:00;5.60;99.90
2465;DHT22;1244;54.326;10.074;2023-12-20T06:53:27;5.50;99.90
2465;DHT22;1244;54.326;10.074;2023-12-20T06:55:53;5.50;99.90
2465;DHT22;1244;54.326;10.074;2023-12-20T06:58:18;5.50;99.90
2465;DHT22;1244;54.326;10.074;2023-12-20T07:00:44;5.50;99.90
2465;DHT22;1244;54.326;10.074;2023-12-20T07:03:10;5.50;99.90
2465;DHT22;1244;54.326;10.074;2023-12-20T07:05:35;5.50;99.90
2465;DHT22;1244;54.326;10.074;2023-12-20T07:08:01;5.50;99.90
2465;DHT22;1244;54.326;10.074;2023-12-20T07:10:28;5.50;99.90
2465;DHT22;1244;54.326;10.074;2023-12-20T07:12:53;5.50;99.90
2465;DHT22;1244;54.326;10.074;2023-12-20T07:15:21;5.50;99.90
2465;DHT22;1244;54.326;10.074;2023-12-20T07:17:46;5.50;99.90
2465;DHT22;1244;54.326;10.074;2023-12-20T07:20:12;5.40;99.90
2465;DHT22;1244;54.326;10.074;2023-12-20T07:22:37;5.50;99.90
2465;DHT22;1244;54.326;10.074;2023-12-20T07:25:03;5.50;99.90
2465;DHT22;1244;54.326;10.074;2023-12-20T07:27:29;5.40;99.90
2465;DHT22;1244;54.326;10.074;2023-12-20T07:29:54;5.40;99.90
2465;DHT22;1244;54.326;10.074;2023-12-20T07:32:20;5.50;99.90
2465;DHT22;1244;54.326;10.074;2023-12-20T07:34:45;5.40;99.90
2465;DHT22;1244;54.326;10.074;2023-12-20T07:37:11;5.50;99.90
2465;DHT22;1244;54.326;10.074;2023-12-20T07:39:40;5.60;99.90
2465;DHT22;1244;54.326;10.074;2023-12-20T07:42:09;5.60;99.90
2465;DHT22;1244;54.326;10.074;2023-12-20T07:44:35;5.60;99.90
2465;DHT22;1244;54.326;10.074;2023-12-20T07:47:01;5.60;99.90
2465;DHT22;1244;54.326;10.074;2023-12-20T07:49:27;5.60;99.90
2465;DHT22;1244;54.326;10.074;2023-12-20T07:51:52;5.70;99.90
2465;DHT22;1244;54.326;10.074;2023-12-20T07:54:18;5.70;99.90
2465;DHT22;1244;54.326;10.074;2023-12-20T07:56:43;5.70;99.90
2465;DHT22;1244;54.326;10.074;2023-12-20T07:59:09;5.70;99.90
2465;DHT22;1244;54.326;10.074;2023-12-20T08:01:35;5.70;99.90
2465;DHT22;1244;54.326;10.074;2023-12-20T08:04:00;5.70;99.90
2465;DHT22;1244;54.326;10.074;2023-12-20T08:06:26;5.70;99.90
2465;DHT22;1244;54.326;10.074;2023-12-20T08:08:51;5.70;99.90
2465;DHT22;1244;54.326;10.074;2023-12-20T08:11:17;5.70;99.90
2465;DHT22;1244;54.326;10.074;2023-12-20T08:13:42;5.70;99.90
2465;DHT22;1244;54.326;10.074;2023-12-20T08:16:08;5.70;99.90
2465;DHT22;1244;54.326;10.074;2023-12-20T08:18:34;5.70;99.90
2465;DHT22;1244;54.326;10.074;2023-12-20T08:21:00;5.70;99.90
2465;DHT22;1244;54.326;10.074;2023-12-20T08:23:25;5.70;99.90
2465;DHT22;1244;54.326;10.074;2023-12-20T08:25:51;5.70;99.90
2465;DHT22;1244;54.326;10.074;2023-12-20T08:28:16;5.60;99.90
2465;DHT22;1244;54.326;10.074;2023-12-20T08:30:42;5.60;99.90
2465;DHT22;1244;54.326;10.074;2023-12-20T08:33:07;5.50;99.90
2465;DHT22;1244;54.326;10.074;2023-12-20T08:35:38;5.50;99.90
2465;DHT22;1244;54.326;10.074;2023-12-20T08:38:04;5.40;99.90
2465;DHT22;1244;54.326;10.074;2023-12-20T08:40:29;5.20;99.90
2465;DHT22;1244;54.326;10.074;2023-12-20T08:42:55;5.10;99.90
2465;DHT22;1244;54.326;10.074;2023-12-20T08:45:21;5.00;99.90
2465;DHT22;1244;54.326;10.074;2023-12-20T08:47:46;4.90;99.90
2465;DHT22;1244;54.326;10.074;2023-12-20T08:50:12;4.90;99.90
2465;DHT22;1244;54.326;10.074;2023-12-20T08:52:37;4.90;99.90
2465;DHT22;1244;54.326;10.074;2023-12-20T08:55:03;4.80;99.90
2465;DHT22;1244;54.326;10.074;2023-12-20T08:57:29;4.80;99.90
2465;DHT22;1244;54.326;10.074;2023-12-20T08:59:57;4.80;99.90
2465;DHT22;1244;54.326;10.074;2023-12-20T09:02:22;4.80;99.90
2465;DHT22;1244;54.326;10.074;2023-12-20T09:04:48;4.70;99.90
2465;DHT22;1244;54.326;10.074;2023-12-20T09:07:25;4.70;99.90
2465;DHT22;1244;54.326;10.074;2023-12-20T09:09:51;4.80;99.90
2465;DHT22;1244;54.326;10.074;2023-12-20T09:12:19;4.80;99.90
2465;DHT22;1244;54.326;10.074;2023-12-20T09:14:46;4.70;99.90
2465;DHT22;1244;54.326;10.074;2023-12-20T09:17:12;4.70;99.90
2465;DHT22;1244;54.326;10.074;2023-12-20T09:19:38;4.70;99.90
2465;DHT22;1244;54.326;10.074;2023-12-20T09:22:04;4.70;99.90
2465;DHT22;1244;54.326;10.074;2023-12-20T09:24:30;4.70;99.90
2465;DHT22;1244;54.326;10.074;2023-12-20T09:26:56;4.70;99.90
2465;DHT22;1244;54.326;10.074;2023-12-20T09:29:21;4.60;99.90
2465;DHT22;1244;54.326;10.074;2023-12-20T09:31:47;4.60;99.90
2465;DHT22;1244;54.326;10.074;2023-12-20T09:34:15;4.60;99.90
2465;DHT22;1244;54.326;10.074;2023-12-20T09:36:41;4.60;99.90
2465;DHT22;1244;54.326;10.074;2023-12-20T09:39:14;4.60;99.90
2465;DHT22;1244;54.326;10.074;2023-12-20T09:41:44;4.80;99.90
2465;DHT22;1244;54.326;10.074;2023-12-20T09:44:16;4.80;99.90
2465;DHT22;1244;54.326;10.074;2023-12-20T09:46:49;4.80;99.90
2465;DHT22;1244;54.326;10.074;2023-12-20T09:49:17;4.70;99.90
2465;DHT22;1244;54.326;10.074;2023-12-20T09:51:45;4.70;99.90
2465;DHT22;1244;54.326;10.074;2023-12-20T09:54:14;4.70;99.90
2465;DHT22;1244;54.326;10.074;2023-12-20T09:56:41;4.70;99.90
2465;DHT22;1244;54.326;10.074;2023-12-20T09:59:07;4.70;99.90
2465;DHT22;1244;54.326;10.074;2023-12-20T10:01:34;4.70;99.90
2465;DHT22;1244;54.326;10.074;2023-12-20T10:04:01;4.90;99.90
2465;DHT22;1244;54.326;10.074;2023-12-20T10:06:32;5.00;99.90
2465;DHT22;1244;54.326;10.074;2023-12-20T10:08:57;5.10;99.90
2465;DHT22;1244;54.326;10.074;2023-12-20T10:11:23;5.30;99.90
2465;DHT22;1244;54.326;10.074;2023-12-20T10:13:50;5.50;99.90
2465;DHT22;1244;54.326;10.074;2023-12-20T10:16:15;5.50;99.90
2465;DHT22;1244;54.326;10.074;2023-12-20T10:18:41;5.60;99.90
2465;DHT22;1244;54.326;10.074;2023-12-20T10:21:07;5.70;99.90
2465;DHT22;1244;54.326;10.074;2023-12-20T10:23:35;5.90;99.90
2465;DHT22;1244;54.326;10.074;2023-12-20T10:26:01;5.80;99.90
2465;DHT22;1244;54.326;10.074;2023-12-20T10:28:28;5.40;99.90
2465;DHT22;1244;54.326;10.074;2023-12-20T10:30:58;5.20;99.90
2465;DHT22;1244;54.326;10.074;2023-12-20T10:33:27;5.10;99.90
2465;DHT22;1244;54.326;10.074;2023-12-20T10:35:55;5.10;99.90
2465;DHT22;1244;54.326;10.074;2023-12-20T10:38:21;4.90;99.90
2465;DHT22;1244;54.326;10.074;2023-12-20T10:40:47;4.90;99.90
2465;DHT22;1244;54.326;10.074;2023-12-20T10:43:13;4.90;99.90
2465;DHT22;1244;54.326;10.074;2023-12-20T10:45:41;4.90;99.90
2465;DHT22;1244;54.326;10.074;2023-12-20T10:48:10;5.00;99.90
2465;DHT22;1244;54.326;10.074;2023-12-20T10:50:38;5.10;99.90
2465;DHT22;1244;54.326;10.074;2023-12-20T10:53:04;5.70;99.90
2465;DHT22;1244;54.326;10.074;2023-12-20T10:55:29;6.10;99.90
2465;DHT22;1244;54.326;10.074;2023-12-20T10:58:01;6.10;99.90
2465;DHT22;1244;54.326;10.074;2023-12-20T11:00:29;5.70;99.90
2465;DHT22;1244;54.326;10.074;2023-12-20T11:02:57;5.40;99.90
2465;DHT22;1244;54.326;10.074;2023-12-20T11:05:38;5.40;99.90
2465;DHT22;1244;54.326;10.074;2023-12-20T11:08:12;5.20;99.90
2465;DHT22;1244;54.326;10.074;2023-12-20T11:10:51;5.50;99.90
2465;DHT22;1244;54.326;10.074;2023-12-20T11:13:40;5.90;99.90
2465;DHT22;1244;54.326;10.074;2023-12-20T11:16:09;6.10;99.90
2465;DHT22;1244;54.326;10.074;2023-12-20T11:18:35;6.30;99.90
2465;DHT22;1244;54.326;10.074;2023-12-20T11:21:02;6.60;99.90
2465;DHT22;1244;54.326;10.074;2023-12-20T11:23:29;6.70;99.90
2465;DHT22;1244;54.326;10.074;2023-12-20T11:25:57;7.10;99.90
2465;DHT22;1244;54.326;10.074;2023-12-20T11:28:26;7.10;99.90
2465;DHT22;1244;54.326;10.074;2023-12-20T11:30:53;7.00;99.90
2465;DHT22;1244;54.326;10.074;2023-12-20T11:33:23;7.00;99.90
2465;DHT22;1244;54.326;10.074;2023-12-20T11:35:49;6.70;99.90
2465;DHT22;1244;54.326;10.074;2023-12-20T11:38:15;6.20;99.90
2465;DHT22;1244;54.326;10.074;2023-12-20T11:40:44;6.00;99.90
2465;DHT22;1244;54.326;10.074;2023-12-20T11:43:09;6.50;99.90
2465;DHT22;1244;54.326;10.074;2023-12-20T11:45:35;6.90;99.90
2465;DHT22;1244;54.326;10.074;2023-12-20T11:48:04;6.90;99.90
2465;DHT22;1244;54.326;10.074;2023-12-20T11:50:31;7.40;99.90
2465;DHT22;1244;54.326;10.074;2023-12-20T11:52:57;7.60;99.90
2465;DHT22;1244;54.326;10.074;2023-12-20T11:55:23;7.60;99.90
2465;DHT22;1244;54.326;10.074;2023-12-20T11:57:51;7.10;99.90
2465;DHT22;1244;54.326;10.074;2023-12-20T12:00:18;7.30;99.90
2465;DHT22;1244;54.326;10.074;2023-12-20T12:02:43;7.20;99.90
2465;DHT22;1244;54.326;10.074;2023-12-20T12:05:19;6.70;99.90
2465;DHT22;1244;54.326;10.074;2023-12-20T12:07:45;6.30;99.90
2465;DHT22;1244;54.326;10.074;2023-12-20T12:10:11;6.10;99.90
2465;DHT22;1244;54.326;10.074;2023-12-20T12:12:36;6.50;99.90
2465;DHT22;1244;54.326;10.074;2023-12-20T12:15:02;7.40;99.90
2465;DHT22;1244;54.326;10.074;2023-12-20T12:17:28;7.70;99.90
2465;DHT22;1244;54.326;10.074;2023-12-20T12:20:02;8.00;99.90
2465;DHT22;1244;54.326;10.074;2023-12-20T12:22:28;8.60;99.90
2465;DHT22;1244;54.326;10.074;2023-12-20T12:24:54;8.30;99.90
2465;DHT22;1244;54.326;10.074;2023-12-20T12:27:19;8.80;99.90
2465;DHT22;1244;54.326;10.074;2023-12-20T12:30:02;9.70;99.90
2465;DHT22;1244;54.326;10.074;2023-12-20T12:32:29;9.40;99.90
2465;DHT22;1244;54.326;10.074;2023-12-20T12:34:54;9.10;99.90
2465;DHT22;1244;54.326;10.074;2023-12-20T12:37:20;8.70;99.90
2465;DHT22;1244;54.326;10.074;2023-12-20T12:39:47;8.40;99.90
2465;DHT22;1244;54.326;10.074;2023-12-20T12:42:12;7.80;99.90
2465;DHT22;1244;54.326;10.074;2023-12-20T12:44:38;7.70;99.90
2465;DHT22;1244;54.326;10.074;2023-12-20T12:47:03;7.10;99.90
2465;DHT22;1244;54.326;10.074;2023-12-20T12:49:29;7.20;99.90
2465;DHT22;1244;54.326;10.074;2023-12-20T12:51:54;7.90;99.90
2465;DHT22;1244;54.326;10.074;2023-12-20T12:54:23;8.40;99.90
2465;DHT22;1244;54.326;10.074;2023-12-20T12:56:49;8.70;99.90
2465;DHT22;1244;54.326;10.074;2023-12-20T12:59:16;9.40;99.90
2465;DHT22;1244;54.326;10.074;2023-12-20T13:01:41;9.60;99.90
2465;DHT22;1244;54.326;10.074;2023-12-20T13:04:08;10.10;99.90
2465;DHT22;1244;54.326;10.074;2023-12-20T13:06:37;9.40;99.90
2465;DHT22;1244;54.326;10.074;2023-12-20T13:09:03;9.70;99.90
2465;DHT22;1244;54.326;10.074;2023-12-20T13:11:30;9.80;99.90
2465;DHT22;1244;54.326;10.074;2023-12-20T13:13:57;9.40;99.90
2465;DHT22;1244;54.326;10.074;2023-12-20T13:16:23;9.50;99.90
2465;DHT22;1244;54.326;10.074;2023-12-20T13:18:50;9.10;99.90
2465;DHT22;1244;54.326;10.074;2023-12-20T13:21:15;9.00;99.90
2465;DHT22;1244;54.326;10.074;2023-12-20T13:23:41;9.30;99.90
2465;DHT22;1244;54.326;10.074;2023-12-20T13:26:07;9.10;99.90
2465;DHT22;1244;54.326;10.074;2023-12-20T13:28:32;8.80;99.90
2465;DHT22;1244;54.326;10.074;2023-12-20T13:30:59;8.70;99.90
2465;DHT22;1244;54.326;10.074;2023-12-20T13:33:25;8.40;99.90
2465;DHT22;1244;54.326;10.074;2023-12-20T13:35:51;8.00;99.90
2465;DHT22;1244;54.326;10.074;2023-12-20T13:38:16;8.10;99.90
2465;DHT22;1244;54.326;10.074;2023-12-20T13:40:42;7.80;99.90
2465;DHT22;1244;54.326;10.074;2023-12-20T13:43:08;7.60;99.90
2465;DHT22;1244;54.326;10.074;2023-12-20T13:45:34;7.30;99.90
2465;DHT22;1244;54.326;10.074;2023-12-20T13:48:00;7.00;99.90
2465;DHT22;1244;54.326;10.074;2023-12-20T13:50:25;6.90;99.90
2465;DHT22;1244;54.326;10.074;2023-12-20T13:52:51;6.80;99.90
2465;DHT22;1244;54.326;10.074;2023-12-20T13:55:17;6.60;99.90
2465;DHT22;1244;54.326;10.074;2023-12-20T13:57:42;6.60;99.90
2465;DHT22;1244;54.326;10.074;2023-12-20T14:00:08;6.50;99.90
2465;DHT22;1244;54.326;10.074;2023-12-20T14:02:42;6.40;99.90
2465;DHT22;1244;54.326;10.074;2023-12-20T14:05:08;6.20;99.90
2465;DHT22;1244;54.326;10.074;2023-12-20T14:07:35;6.20;99.90
2465;DHT22;1244;54.326;10.074;2023-12-20T14:10:00;6.10;99.90
2465;DHT22;1244;54.326;10.074;2023-12-20T14:12:26;6.10;99.90
2465;DHT22;1244;54.326;10.074;2023-12-20T14:14:51;5.90;99.90
2465;DHT22;1244;54.326;10.074;2023-12-20T14:17:17;5.90;99.90
2465;DHT22;1244;54.326;10.074;2023-12-20T14:19:43;5.80;99.90
2465;DHT22;1244;54.326;10.074;2023-12-20T14:22:09;5.80;99.90
2465;DHT22;1244;54.326;10.074;2023-12-20T14:24:35;5.60;99.90
2465;DHT22;1244;54.326;10.074;2023-12-20T14:27:01;5.70;99.90
2465;DHT22;1244;54.326;10.074;2023-12-20T14:29:27;5.60;99.90
2465;DHT22;1244;54.326;10.074;2023-12-20T14:31:52;5.50;99.90
2465;DHT22;1244;54.326;10.074;2023-12-20T14:34:18;5.50;99.90
2465;DHT22;1244;54.326;10.074;2023-12-20T14:36:44;5.50;99.90
2465;DHT22;1244;54.326;10.074;2023-12-20T14:39:09;5.50;99.90
2465;DHT22;1244;54.326;10.074;2023-12-20T14:41:38;5.50;99.90
2465;DHT22;1244;54.326;10.074;2023-12-20T14:44:05;5.40;99.90
2465;DHT22;1244;54.326;10.074;2023-12-20T14:46:31;5.40;99.90
2465;DHT22;1244;54.326;10.074;2023-12-20T14:48:56;5.40;99.90
2465;DHT22;1244;54.326;10.074;2023-12-20T14:51:22;5.40;99.90
2465;DHT22;1244;54.326;10.074;2023-12-20T14:53:48;5.30;99.90
2465;DHT22;1244;54.326;10.074;2023-12-20T14:56:13;5.20;99.90
2465;DHT22;1244;54.326;10.074;2023-12-20T14:58:40;5.30;99.90
2465;DHT22;1244;54.326;10.074;2023-12-20T15:01:05;5.10;99.90
2465;DHT22;1244;54.326;10.074;2023-12-20T15:03:34;5.10;99.90
2465;DHT22;1244;54.326;10.074;2023-12-20T15:05:59;5.10;99.90
2465;DHT22;1244;54.326;10.074;2023-12-20T15:08:25;5.10;99.90
2465;DHT22;1244;54.326;10.074;2023-12-20T15:10:51;5.10;99.90
2465;DHT22;1244;54.326;10.074;2023-12-20T15:13:17;5.10;99.90
2465;DHT22;1244;54.326;10.074;2023-12-20T15:15:42;5.20;99.90
2465;DHT22;1244;54.326;10.074;2023-12-20T15:18:08;5.10;99.90
2465;DHT22;1244;54.326;10.074;2023-12-20T15:20:33;5.10;99.90
2465;DHT22;1244;54.326;10.074;2023-12-20T15:22:59;5.00;99.90
2465;DHT22;1244;54.326;10.074;2023-12-20T15:25:32;5.10;99.90
2465;DHT22;1244;54.326;10.074;2023-12-20T15:27:57;5.10;99.90
2465;DHT22;1244;54.326;10.074;2023-12-20T15:30:23;5.10;99.90
2465;DHT22;1244;54.326;10.074;2023-12-20T15:32:51;5.10;99.90
2465;DHT22;1244;54.326;10.074;2023-12-20T15:35:17;5.10;99.90
2465;DHT22;1244;54.326;10.074;2023-12-20T15:37:43;5.10;99.90
2465;DHT22;1244;54.326;10.074;2023-12-20T15:40:09;5.10;99.90
2465;DHT22;1244;54.326;10.074;2023-12-20T15:42:39;5.20;99.90
2465;DHT22;1244;54.326;10.074;2023-12-20T15:45:05;5.20;99.90
2465;DHT22;1244;54.326;10.074;2023-12-20T15:47:31;5.20;99.90
2465;DHT22;1244;54.326;10.074;2023-12-20T15:49:57;5.30;99.90
2465;DHT22;1244;54.326;10.074;2023-12-20T15:52:23;5.20;99.90
2465;DHT22;1244;54.326;10.074;2023-12-20T15:54:48;5.10;99.90